createdAt,value
2023-01-04T00:01:23.369Z,97948.31
2023-01-04T00:03:50.732Z,97945.22
2023-01-04T00:06:19.295Z,97933.34
2023-01-04T00:08:46.654Z,97941.84
2023-01-04T00:11:21.720Z,97923.81
2023-01-04T00:13:52.477Z,97926.63
2023-01-04T00:16:22.066Z,97924.31
2023-01-04T00:18:49.782Z,97917.59
2023-01-04T00:21:19.817Z,97909.84
2023-01-04T00:23:49.517Z,97900.56
2023-01-04T00:26:23.224Z,97890.78
2023-01-04T00:28:57.570Z,97888.16
2023-01-04T00:31:25.786Z,97883.53
2023-01-04T00:33:57.368Z,97881.47
2023-01-04T00:36:25.306Z,97870.63
2023-01-04T00:39:08.185Z,97863.09
2023-01-04T00:44:27.676Z,97856.38
2023-01-04T00:46:55.036Z,97853.03
2023-01-04T00:49:22.208Z,97841.91
2023-01-04T00:51:49.288Z,97846.56
2023-01-04T00:54:17.046Z,97845.03
2023-01-04T00:56:44.567Z,97849.16
2023-01-04T00:59:14.961Z,97857.63
2023-01-04T01:01:43.343Z,97855.06
2023-01-04T01:04:13.667Z,97861.53
2023-01-04T01:06:41.467Z,97861.03
2023-01-04T01:09:09.517Z,97859.22
2023-01-04T01:11:38.483Z,97858.47
2023-01-04T01:14:06.086Z,97857.41
2023-01-04T01:19:20.214Z,97844.50
2023-01-04T01:21:48.407Z,97841.94
2023-01-04T01:24:18.469Z,97835.41
2023-01-04T01:26:46.062Z,97842.38
2023-01-04T01:29:13.110Z,97830.78
2023-01-04T01:31:40.989Z,97838.78
2023-01-04T01:34:08.690Z,97844.72
2023-01-04T01:36:36.647Z,97845.72
2023-01-04T01:39:04.124Z,97864.25
2023-01-04T01:41:34.064Z,97868.44
2023-01-04T01:44:10.011Z,97880.28
2023-01-04T01:46:50.833Z,97896.28
2023-01-04T01:49:32.806Z,97887.50
2023-01-04T01:52:04.356Z,97898.34
2023-01-04T01:54:44.531Z,97894.19
2023-01-04T01:57:16.189Z,97899.63
2023-01-04T01:59:46.281Z,97906.56
2023-01-04T02:02:13.547Z,97913.56
2023-01-04T02:04:45.102Z,97920.78
2023-01-04T02:07:16.797Z,97913.81
2023-01-04T02:09:45.592Z,97916.66
2023-01-04T02:12:13.830Z,97905.81
2023-01-04T02:14:44.140Z,97899.88
2023-01-04T02:17:23.315Z,97890.81
2023-01-04T02:20:28.792Z,97898.03
2023-01-04T02:23:14.278Z,97908.63
2023-01-04T02:26:03.075Z,97901.91
2023-01-04T02:28:39.245Z,97885.13
2023-01-04T02:31:26.657Z,97866.25
2023-01-04T02:34:14.008Z,97854.66
2023-01-04T02:37:20.261Z,97827.53
2023-01-04T02:39:53.672Z,97820.78
2023-01-04T02:42:54.856Z,97806.88
2023-01-04T02:45:27.244Z,97797.31
2023-01-04T02:48:12.817Z,97785.47
2023-01-04T02:51:01.265Z,97778.75
2023-01-04T02:53:40.346Z,97762.19
2023-01-04T02:56:35.970Z,97750.34
2023-01-04T02:59:38.574Z,97738.19
2023-01-04T03:03:06.971Z,97721.44
2023-01-04T03:06:17.382Z,97702.09
2023-01-04T03:09:05.911Z,97684.28
2023-01-04T03:12:08.281Z,97661.31
2023-01-04T03:14:40.851Z,97643.00
2023-01-04T03:17:12.016Z,97632.66
2023-01-04T03:19:55.508Z,97610.53
2023-01-04T03:22:56.618Z,97601.53
2023-01-04T03:25:53.220Z,97579.34
2023-01-04T03:28:42.140Z,97577.81
2023-01-04T03:31:40.689Z,97562.03
2023-01-04T03:34:26.685Z,97550.41
2023-01-04T03:37:09.027Z,97534.44
2023-01-04T03:40:18.994Z,97525.31
2023-01-04T03:43:13.634Z,97513.44
2023-01-04T03:46:10.704Z,97501.31
2023-01-04T03:48:46.081Z,97484.50
2023-01-04T03:51:18.200Z,97476.22
2023-01-04T03:54:06.196Z,97477.00
2023-01-04T03:56:37.889Z,97469.00
2023-01-04T03:59:05.770Z,97480.59
2023-01-04T04:01:32.993Z,97469.53
2023-01-04T04:04:19.204Z,97469.22
2023-01-04T04:07:04.787Z,97454.16
2023-01-04T04:09:32.169Z,97448.44
2023-01-04T04:11:59.389Z,97453.25
2023-01-04T04:14:26.511Z,97453.63
2023-01-04T04:16:53.815Z,97459.00
2023-01-04T04:19:22.228Z,97465.69
2023-01-04T04:21:49.343Z,97463.56
2023-01-04T04:24:24.655Z,97467.16
2023-01-04T04:26:54.735Z,97472.56
2023-01-04T04:29:23.044Z,97487.22
2023-01-04T04:31:50.472Z,97483.13
2023-01-04T04:34:17.779Z,97480.22
2023-01-04T04:36:45.015Z,97471.28
2023-01-04T04:39:12.975Z,97468.59
2023-01-04T04:41:41.799Z,97472.72
2023-01-04T04:44:20.592Z,97474.97
2023-01-04T04:46:49.164Z,97483.28
2023-01-04T04:49:17.672Z,97480.16
2023-01-04T04:51:46.130Z,97474.97
2023-01-04T04:54:19.818Z,97482.44
2023-01-04T04:56:48.335Z,97481.09
2023-01-04T04:59:16.019Z,97483.69
2023-01-04T05:01:43.547Z,97468.97
2023-01-04T05:04:16.956Z,97457.31
2023-01-04T05:06:44.790Z,97469.63
2023-01-04T05:09:13.529Z,97467.59
2023-01-04T05:12:00.154Z,97468.88
2023-01-04T05:14:27.731Z,97471.22
2023-01-04T05:16:55.118Z,97480.53
2023-01-04T05:19:25.255Z,97478.53
2023-01-04T05:21:52.286Z,97479.78
2023-01-04T05:24:19.483Z,97466.38
2023-01-04T05:26:49.662Z,97469.31
2023-01-04T05:29:35.330Z,97480.00
2023-01-04T05:32:02.517Z,97489.03
2023-01-04T05:34:29.732Z,97497.50
2023-01-04T05:36:56.838Z,97474.22
2023-01-04T05:39:23.915Z,97461.97
2023-01-04T05:42:09.736Z,97439.03
2023-01-04T05:44:36.847Z,97439.25
2023-01-04T05:47:04.751Z,97449.84
2023-01-04T05:49:34.322Z,97442.34
2023-01-04T05:52:04.566Z,97431.34
2023-01-04T05:54:31.655Z,97416.47
2023-01-04T05:56:58.872Z,97410.94
2023-01-04T05:59:25.906Z,97416.63
2023-01-04T06:01:53.188Z,97411.53
2023-01-04T06:04:20.644Z,97407.03
2023-01-04T06:06:47.878Z,97416.81
2023-01-04T06:09:14.994Z,97386.03
2023-01-04T06:11:42.150Z,97385.28
2023-01-04T06:14:09.324Z,97398.97
2023-01-04T06:16:36.463Z,97390.44
2023-01-04T06:19:03.941Z,97394.09
2023-01-04T06:21:31.200Z,97380.94
2023-01-04T06:23:58.255Z,97387.66
2023-01-04T06:26:25.347Z,97384.41
2023-01-04T06:28:52.382Z,97389.22
2023-01-04T06:31:19.535Z,97385.47
2023-01-04T06:33:46.681Z,97398.94
2023-01-04T06:36:20.162Z,97390.16
2023-01-04T06:38:48.415Z,97371.97
2023-01-04T06:41:15.940Z,97362.38
2023-01-04T06:43:42.965Z,97362.88
2023-01-04T06:46:10.348Z,97352.69
2023-01-04T06:48:37.509Z,97369.22
2023-01-04T06:51:05.008Z,97360.56
2023-01-04T06:53:31.988Z,97358.47
2023-01-04T06:55:59.170Z,97362.13
2023-01-04T06:58:26.411Z,97365.00
2023-01-04T07:00:55.277Z,97365.44
2023-01-04T07:03:23.511Z,97373.81
2023-01-04T07:05:50.622Z,97372.94
2023-01-04T07:08:17.638Z,97377.53
2023-01-04T07:10:44.839Z,97385.97
2023-01-04T07:13:12.059Z,97393.38
2023-01-04T07:15:40.858Z,97393.09
2023-01-04T07:18:10.252Z,97392.91
2023-01-04T07:20:38.368Z,97411.38
2023-01-04T07:23:07.002Z,97411.31
2023-01-04T07:25:34.782Z,97417.75
2023-01-04T07:28:02.191Z,97425.13
2023-01-04T07:30:29.768Z,97424.66
2023-01-04T07:32:58.030Z,97432.41
2023-01-04T07:35:25.660Z,97437.72
2023-01-04T07:37:58.140Z,97440.00
2023-01-04T07:40:27.931Z,97440.19
2023-01-04T07:42:59.717Z,97427.94
2023-01-04T07:45:26.936Z,97415.25
2023-01-04T07:47:54.113Z,97428.84
2023-01-04T07:50:21.384Z,97421.94
2023-01-04T07:52:48.418Z,97412.06
2023-01-04T07:55:15.713Z,97421.00
2023-01-04T07:57:42.974Z,97410.31
2023-01-04T08:00:13.576Z,97418.59
2023-01-04T08:02:40.764Z,97422.53
2023-01-04T08:05:08.305Z,97420.69
2023-01-04T08:07:35.351Z,97438.72
2023-01-04T08:10:02.515Z,97461.59
2023-01-04T08:12:32.597Z,97456.88
2023-01-04T08:15:01.555Z,97470.53
2023-01-04T08:17:28.622Z,97447.28
2023-01-04T08:19:56.387Z,97440.66
2023-01-04T08:22:23.738Z,97429.13
2023-01-04T08:24:50.792Z,97455.72
2023-01-04T08:27:20.947Z,97454.09
2023-01-04T08:29:48.225Z,97439.09
2023-01-04T08:32:15.396Z,97452.53
2023-01-04T08:34:42.703Z,97448.03
2023-01-04T08:37:11.930Z,97456.06
2023-01-04T08:39:45.372Z,97442.06
2023-01-04T08:42:22.475Z,97460.22
2023-01-04T08:44:58.678Z,97433.31
2023-01-04T08:47:27.233Z,97433.31
2023-01-04T08:49:54.670Z,97438.22
2023-01-04T08:52:25.146Z,97434.50
2023-01-04T08:54:52.368Z,97442.72
2023-01-04T08:57:20.094Z,97421.22
2023-01-04T08:59:47.178Z,97428.91
2023-01-04T09:02:22.277Z,97421.03
2023-01-04T09:04:50.450Z,97410.13
2023-01-04T09:07:19.004Z,97404.25
2023-01-04T09:09:46.288Z,97406.56
2023-01-04T09:12:13.534Z,97390.66
2023-01-04T09:14:40.733Z,97388.72
2023-01-04T09:17:08.051Z,97394.28
2023-01-04T09:19:35.104Z,97406.84
2023-01-04T09:22:03.869Z,97395.22
2023-01-04T09:24:33.804Z,97412.69
2023-01-04T09:27:01.181Z,97414.41
2023-01-04T09:29:28.368Z,97410.19
2023-01-04T09:31:56.585Z,97402.47
2023-01-04T09:34:23.700Z,97409.13
2023-01-04T09:36:50.913Z,97413.66
2023-01-04T09:39:22.986Z,97429.38
2023-01-04T09:42:00.558Z,97418.09
2023-01-04T09:47:54.060Z,97429.03
2023-01-04T09:50:24.498Z,97426.44
2023-01-04T09:52:57.819Z,97450.91
2023-01-04T09:55:39.417Z,97443.41
2023-01-04T09:58:21.336Z,97439.56
2023-01-04T10:01:15.426Z,97441.88
2023-01-04T10:03:51.172Z,97439.56
2023-01-04T10:06:18.333Z,97427.81
2023-01-04T10:08:45.323Z,97426.00
2023-01-04T10:11:33.668Z,97424.53
2023-01-04T10:14:33.728Z,97423.44
2023-01-04T10:17:13.588Z,97414.03
2023-01-04T10:21:12.875Z,97427.19
2023-01-04T10:22:54.586Z,97429.03
2023-01-04T10:25:40.877Z,97438.25
2023-01-04T10:28:31.288Z,97449.75
2023-01-04T10:31:40.100Z,97452.16
2023-01-04T10:34:30.024Z,97436.19
2023-01-04T10:37:05.082Z,97432.97
2023-01-04T10:39:36.356Z,97436.00
2023-01-04T10:42:18.910Z,97429.47
2023-01-04T10:45:05.066Z,97427.50
2023-01-04T10:47:46.196Z,97424.47
2023-01-04T10:50:27.805Z,97419.56
2023-01-04T10:53:18.310Z,97427.50
2023-01-04T10:56:25.327Z,97422.75
2023-01-04T10:58:47.976Z,97422.59
2023-01-04T11:01:38.852Z,97426.63
2023-01-04T11:04:18.026Z,97433.03
2023-01-04T11:06:53.135Z,97423.88
2023-01-04T11:09:28.076Z,97423.88
2023-01-04T11:11:58.305Z,97425.13
2023-01-04T11:14:25.859Z,97413.66
2023-01-04T11:16:59.451Z,97434.91
2023-01-04T11:19:28.582Z,97435.06
2023-01-04T11:22:12.306Z,97426.50
2023-01-04T11:25:00.485Z,97407.53
2023-01-04T11:27:40.598Z,97394.72
2023-01-04T11:30:21.808Z,97395.63
2023-01-04T11:33:03.839Z,97370.25
2023-01-04T11:35:46.177Z,97387.72
2023-01-04T11:38:17.724Z,97386.59
2023-01-04T11:41:06.265Z,97372.13
2023-01-04T11:43:35.647Z,97365.53
2023-01-04T11:46:18.147Z,97371.38
2023-01-04T11:48:52.779Z,97343.97
2023-01-04T11:51:19.871Z,97336.19
2023-01-04T11:53:57.765Z,97291.53
2023-01-04T11:56:26.811Z,97247.97
2023-01-04T11:59:09.318Z,97215.25
2023-01-04T12:01:43.774Z,97205.31
2023-01-04T12:04:22.546Z,97204.28
2023-01-04T12:06:52.737Z,97190.22
2023-01-04T12:09:21.784Z,97189.88
2023-01-04T12:11:52.490Z,97176.88
2023-01-04T12:14:32.568Z,97160.09
2023-01-04T12:17:17.449Z,97151.69
2023-01-04T12:19:46.395Z,97163.00
2023-01-04T12:22:38.409Z,97160.41
2023-01-04T12:25:20.023Z,97138.84
2023-01-04T12:27:51.963Z,97146.78
2023-01-04T12:30:39.337Z,97154.59
2023-01-04T12:33:31.348Z,97154.09
2023-01-04T12:36:06.879Z,97150.56
2023-01-04T12:38:52.422Z,97156.22
2023-01-04T12:41:20.569Z,97164.31
2023-01-04T12:43:50.162Z,97181.41
2023-01-04T12:46:59.243Z,97167.97
2023-01-04T12:49:26.305Z,97173.81
2023-01-04T12:54:58.965Z,97205.09
2023-01-04T12:57:32.127Z,97214.28
2023-01-04T13:00:12.076Z,97236.75
2023-01-04T13:02:44.617Z,97238.41
2023-01-04T13:08:12.127Z,97262.56
2023-01-04T13:10:47.441Z,97256.59
2023-01-04T13:13:23.581Z,97267.34
2023-01-04T13:16:14.355Z,97252.81
2023-01-04T13:19:10.890Z,97264.13
2023-01-04T13:21:44.159Z,97264.88
2023-01-04T13:24:33.392Z,97259.53
2023-01-04T13:27:10.544Z,97272.06
2023-01-04T13:29:42.013Z,97291.94
2023-01-04T13:32:15.386Z,97257.69
2023-01-04T13:35:13.942Z,97270.06
2023-01-04T13:37:46.742Z,97267.16
2023-01-04T13:40:37.672Z,97244.06
2023-01-04T13:43:55.343Z,97270.66
2023-01-04T13:46:25.581Z,97257.53
2023-01-04T13:48:58.311Z,97250.75
2023-01-04T13:51:37.090Z,97238.72
2023-01-04T13:54:07.602Z,97242.50
2023-01-04T13:56:35.995Z,97244.03
2023-01-04T13:59:03.072Z,97265.75
2023-01-04T14:01:37.558Z,97251.72
2023-01-04T14:04:21.943Z,97266.81
2023-01-04T14:06:51.208Z,97260.88
2023-01-04T14:09:24.311Z,97257.19
2023-01-04T14:12:08.726Z,97258.56
2023-01-04T14:15:13.138Z,97242.81
2023-01-04T14:17:55.196Z,97239.75
2023-01-04T14:20:25.111Z,97250.16
2023-01-04T14:22:57.412Z,97255.69
2023-01-04T14:25:49.770Z,97239.00
2023-01-04T14:28:20.359Z,97236.41
2023-01-04T14:30:51.881Z,97249.84
2023-01-04T14:33:23.477Z,97236.09
2023-01-04T14:36:09.444Z,97234.13
2023-01-04T14:38:42.760Z,97224.75
2023-01-04T14:41:21.424Z,97232.13
2023-01-04T14:43:53.824Z,97209.94
2023-01-04T14:46:22.496Z,97215.59
2023-01-04T14:48:50.060Z,97224.47
2023-01-04T14:51:23.050Z,97224.75
2023-01-04T14:53:51.416Z,97227.69
2023-01-04T14:56:19.420Z,97208.72
2023-01-04T14:58:46.992Z,97212.06
2023-01-04T15:01:14.261Z,97214.69
2023-01-04T15:03:41.417Z,97220.16
2023-01-04T15:06:08.883Z,97217.44
2023-01-04T15:08:41.551Z,97208.28
2023-01-04T15:11:12.227Z,97218.97
2023-01-04T15:13:40.048Z,97216.38
2023-01-04T15:16:08.472Z,97220.06
2023-01-04T15:18:35.709Z,97225.25
2023-01-04T15:21:04.234Z,97213.47
2023-01-04T15:23:31.427Z,97189.75
2023-01-04T15:26:05.485Z,97203.22
2023-01-04T15:28:33.840Z,97195.88
2023-01-04T15:31:01.398Z,97185.97
2023-01-04T15:33:35.793Z,97191.28
2023-01-04T15:36:10.339Z,97177.22
2023-01-04T15:38:37.762Z,97155.53
2023-01-04T15:41:11.367Z,97146.78
2023-01-04T15:43:38.818Z,97139.75
2023-01-04T15:46:07.681Z,97131.34
2023-01-04T15:48:36.217Z,97141.28
2023-01-04T15:51:08.223Z,97131.81
2023-01-04T15:53:35.526Z,97125.97
2023-01-04T15:56:08.208Z,97122.00
2023-01-04T15:58:35.864Z,97130.13
2023-01-04T16:01:10.610Z,97128.75
2023-01-04T16:03:38.255Z,97118.75
2023-01-04T16:06:11.943Z,97126.56
2023-01-04T16:08:39.652Z,97116.50
2023-01-04T16:11:22.929Z,97118.19
2023-01-04T16:13:51.943Z,97109.75
2023-01-04T16:16:22.898Z,97111.13
2023-01-04T16:18:56.121Z,97097.66
2023-01-04T16:21:30.486Z,97110.19
2023-01-04T16:24:06.959Z,97098.13
2023-01-04T16:26:37.423Z,97082.81
2023-01-04T16:29:04.591Z,97097.81
2023-01-04T16:31:36.093Z,97089.81
2023-01-04T16:34:03.637Z,97090.13
2023-01-04T16:36:31.017Z,97089.06
2023-01-04T16:38:58.432Z,97091.34
2023-01-04T16:41:25.698Z,97086.31
2023-01-04T16:43:55.619Z,97098.28
2023-01-04T16:46:36.839Z,97105.88
2023-01-04T16:49:10.275Z,97088.44
2023-01-04T16:51:40.176Z,97083.66
2023-01-04T16:54:09.903Z,97089.19
2023-01-04T16:56:37.871Z,97083.41
2023-01-04T16:59:05.431Z,97073.44
2023-01-04T17:01:35.997Z,97073.69
2023-01-04T17:04:07.467Z,97074.81
2023-01-04T17:06:40.373Z,97068.50
2023-01-04T17:09:10.801Z,97048.19
2023-01-04T17:14:27.228Z,97024.31
2023-01-04T17:16:54.968Z,97014.13
2023-01-04T17:19:25.219Z,97005.56
2023-01-04T17:21:52.451Z,96996.94
2023-01-04T17:24:20.127Z,97009.78
2023-01-04T17:26:47.698Z,97006.41
2023-01-04T17:29:17.696Z,96982.56
2023-01-04T17:31:45.375Z,96983.41
2023-01-04T17:34:21.956Z,96984.50
2023-01-04T17:36:50.073Z,96986.22
2023-01-04T17:39:17.476Z,96984.97
2023-01-04T17:41:44.819Z,96965.44
2023-01-04T17:44:12.360Z,96962.81
2023-01-04T17:46:40.817Z,96937.25
2023-01-04T17:49:31.241Z,96934.97
2023-01-04T17:51:59.139Z,96924.56
2023-01-04T17:54:27.220Z,96918.44
2023-01-04T17:56:54.771Z,96906.13
2023-01-04T17:59:22.000Z,96922.94
2023-01-04T18:01:52.329Z,96935.13
2023-01-04T18:04:19.373Z,96947.19
2023-01-04T18:06:46.499Z,96966.06
2023-01-04T18:09:15.591Z,96975.09
2023-01-04T18:11:45.514Z,96993.19
2023-01-04T18:14:14.734Z,97004.25
2023-01-04T18:16:57.989Z,97005.88
2023-01-04T18:19:30.449Z,97027.78
2023-01-04T18:21:58.334Z,97005.78
2023-01-04T18:24:41.952Z,96989.25
2023-01-04T18:27:27.140Z,96993.38
2023-01-04T18:29:57.221Z,96991.47
2023-01-04T18:32:25.566Z,97022.56
2023-01-04T18:34:52.695Z,97036.97
2023-01-04T18:37:19.882Z,97032.97
2023-01-04T18:39:48.286Z,97046.09
2023-01-04T18:42:15.950Z,97056.50
2023-01-04T18:44:48.556Z,97065.88
2023-01-04T18:47:21.433Z,97068.13
2023-01-04T18:49:50.186Z,97075.66
2023-01-04T18:52:18.184Z,97057.44
2023-01-04T18:54:45.808Z,97061.72
2023-01-04T18:57:13.009Z,97059.00
2023-01-04T18:59:40.825Z,97036.41
2023-01-04T19:02:08.016Z,97035.94
2023-01-04T19:04:36.570Z,97020.66
2023-01-04T19:07:03.679Z,97029.13
2023-01-04T19:09:31.069Z,96997.97
2023-01-04T19:11:58.112Z,96957.16
2023-01-04T19:14:25.222Z,96942.84
2023-01-04T19:16:53.572Z,96952.63
2023-01-04T19:19:21.229Z,96942.19
2023-01-04T19:21:48.789Z,96931.91
2023-01-04T19:24:15.763Z,96925.34
2023-01-04T19:26:43.427Z,96922.75
2023-01-04T19:29:10.751Z,96914.16
2023-01-04T19:31:39.489Z,96942.78
2023-01-04T19:34:09.040Z,96953.94
2023-01-04T19:36:38.312Z,96958.25
2023-01-04T19:39:09.613Z,96974.91
2023-01-04T19:41:39.863Z,96989.25
2023-01-04T19:44:09.391Z,96989.13
2023-01-04T19:46:40.753Z,97007.97
2023-01-04T19:49:14.770Z,97006.34
2023-01-04T19:51:45.530Z,97001.78
2023-01-04T19:54:21.695Z,96995.16
2023-01-04T19:56:51.980Z,96989.97
2023-01-04T19:59:19.180Z,97007.03
2023-01-04T20:01:46.514Z,97013.31
2023-01-04T20:04:16.835Z,97020.16
2023-01-04T20:06:43.871Z,97060.22
2023-01-04T20:09:11.096Z,97090.19
2023-01-04T20:11:38.280Z,97107.03
2023-01-04T20:14:05.583Z,97110.56
2023-01-04T20:16:32.570Z,97142.03
2023-01-04T20:18:59.772Z,97156.09
2023-01-04T20:21:27.301Z,97158.81
2023-01-04T20:23:54.307Z,97157.19
2023-01-04T20:26:21.449Z,97157.47
2023-01-04T20:28:48.929Z,97158.88
2023-01-04T20:31:19.919Z,97141.44
2023-01-04T20:33:47.949Z,97163.16
2023-01-04T20:36:19.220Z,97151.78
2023-01-04T20:38:47.498Z,97140.81
2023-01-04T20:41:20.974Z,97141.00
2023-01-04T20:43:49.578Z,97159.66
2023-01-04T20:46:22.089Z,97161.34
2023-01-04T20:48:49.897Z,97174.06
2023-01-04T20:51:22.310Z,97195.25
2023-01-04T20:53:50.269Z,97224.56
2023-01-04T20:56:28.582Z,97238.00
2023-01-04T20:58:55.951Z,97241.88
2023-01-04T21:01:23.518Z,97267.41
2023-01-04T21:03:50.821Z,97276.75
2023-01-04T21:06:18.565Z,97287.44
2023-01-04T21:08:46.877Z,97290.81
2023-01-04T21:11:14.912Z,97274.25
2023-01-04T21:13:43.070Z,97248.88
2023-01-04T21:16:11.097Z,97200.34
2023-01-04T21:18:41.730Z,97175.00
2023-01-04T21:21:12.610Z,97132.47
2023-01-04T21:23:41.767Z,97105.22
2023-01-04T21:26:12.163Z,97101.41
2023-01-04T21:28:39.331Z,97108.06
2023-01-04T21:31:13.865Z,97107.31
2023-01-04T21:33:41.109Z,97148.03
2023-01-04T21:36:19.875Z,97154.00
2023-01-04T21:38:55.390Z,97175.47
2023-01-04T21:41:26.763Z,97172.28
2023-01-04T21:43:57.810Z,97191.53
2023-01-04T21:46:26.077Z,97177.31
2023-01-04T21:48:55.892Z,97200.22
2023-01-04T21:51:23.052Z,97196.84
2023-01-04T21:53:50.460Z,97187.97
2023-01-04T21:56:19.728Z,97183.84
2023-01-04T21:58:47.051Z,97158.25
2023-01-04T22:01:22.899Z,97147.59
2023-01-04T22:03:50.347Z,97103.69
2023-01-04T22:06:21.358Z,97070.69
2023-01-04T22:08:48.647Z,97054.94
2023-01-04T22:11:16.359Z,97024.56
2023-01-04T22:13:44.053Z,97023.78
2023-01-04T22:16:14.263Z,96999.72
2023-01-04T22:18:41.682Z,96981.19
2023-01-04T22:21:13.193Z,96968.19
2023-01-04T22:23:40.568Z,96964.06
2023-01-04T22:26:08.072Z,96948.13
2023-01-04T22:28:37.211Z,96951.72
2023-01-04T22:31:07.157Z,96946.53
2023-01-04T22:33:38.454Z,96944.31
2023-01-04T22:36:21.650Z,96947.84
2023-01-04T22:38:50.025Z,96933.28
2023-01-04T22:41:19.382Z,96929.47
2023-01-04T22:43:47.208Z,96901.19
2023-01-04T22:46:18.206Z,96897.72
2023-01-04T22:48:46.233Z,96894.88
2023-01-04T22:51:15.732Z,96897.50
2023-01-04T22:53:43.574Z,96901.19
2023-01-04T22:56:20.783Z,96895.34
2023-01-04T22:58:55.487Z,96890.81
2023-01-04T23:01:25.488Z,96891.91
2023-01-04T23:03:52.727Z,96912.94
2023-01-04T23:06:20.054Z,96905.91
2023-01-04T23:08:47.057Z,96917.97
2023-01-04T23:11:16.531Z,96911.25
2023-01-04T23:13:44.065Z,96915.69
2023-01-04T23:16:14.545Z,96905.81
2023-01-04T23:18:41.644Z,96901.69
2023-01-04T23:21:12.605Z,96887.59
2023-01-04T23:23:39.955Z,96882.47
2023-01-04T23:26:14.204Z,96877.41
2023-01-04T23:28:41.741Z,96900.50
2023-01-04T23:31:11.696Z,96912.66
2023-01-04T23:33:38.893Z,96917.75
2023-01-04T23:36:13.669Z,96934.00
2023-01-04T23:38:41.651Z,96925.03
2023-01-04T23:41:09.477Z,96923.19
2023-01-04T23:43:38.250Z,96913.19
2023-01-04T23:48:36.179Z,96906.44
2023-01-04T23:51:03.493Z,96913.63
2023-01-04T23:53:30.941Z,96913.53
2023-01-04T23:56:00.673Z,96919.47
2023-01-04T23:58:28.244Z,96912.09
